Time;durP1;ratioP1;P1;durP2;ratioP2;P2;SDS_P1;SDS_P2;PMS_P1;PMS_P2;Temp;Humidity;BMP_temperature;BMP_pressure;BME280_temperature;BME280_humidity;BME280_pressure;Samples;Min_cycle;Max_cycle;Signal;HPM_P1;HPM_P2
2024/01/07 00:00:16;;;;;;;31.08;16.23;;;;;;;3.39;100.00;100942.72;4992855;28;20042;-59
2024/01/07 00:02:41;;;;;;;35.17;16.95;;;;;;;3.41;100.00;100942.75;4989513;28;20554;-59
2024/01/07 00:05:07;;;;;;;39.83;18.75;;;;;;;3.40;100.00;100944.47;4998846;28;20029;-60
2024/01/07 00:07:32;;;;;;;35.60;17.65;;;;;;;3.38;100.00;100938.44;4996906;28;20602;-59
2024/01/07 00:09:58;;;;;;;38.50;18.40;;;;;;;3.40;100.00;100952.13;4987730;28;20038;-59
2024/01/07 00:12:24;;;;;;;37.47;18.08;;;;;;;3.38;100.00;100952.91;4995613;28;20088;-59
2024/01/07 00:14:50;;;;;;;39.03;19.45;;;;;;;3.38;100.00;100948.66;4991866;28;20108;-60
2024/01/07 00:17:15;;;;;;;39.55;18.33;;;;;;;3.37;100.00;100961.41;4993875;28;20037;-58
2024/01/07 00:19:41;;;;;;;41.22;20.00;;;;;;;3.37;100.00;100964.84;4999658;28;20149;-59
2024/01/07 00:22:07;;;;;;;37.22;18.35;;;;;;;3.40;100.00;100959.78;4996994;28;20563;-60
2024/01/07 00:24:32;;;;;;;37.20;18.77;;;;;;;3.40;100.00;100954.69;4998505;28;20066;-59
2024/01/07 00:26:57;;;;;;;38.55;19.25;;;;;;;3.41;100.00;100965.75;4999482;28;20053;-59
2024/01/07 00:29:23;;;;;;;42.25;20.30;;;;;;;3.41;100.00;100960.63;4991264;28;20034;-59
2024/01/07 00:31:48;;;;;;;43.47;18.75;;;;;;;3.42;100.00;100965.78;4998133;28;20069;-59
2024/01/07 00:34:13;;;;;;;35.83;18.45;;;;;;;3.44;100.00;100965.81;4998559;28;20034;-59
2024/01/07 00:36:39;;;;;;;33.75;16.58;;;;;;;3.42;100.00;100967.47;4998091;28;20062;-59
2024/01/07 00:39:05;;;;;;;31.13;15.38;;;;;;;3.43;100.00;100964.97;5000005;28;20556;-60
2024/01/07 00:41:30;;;;;;;36.55;17.10;;;;;;;3.44;100.00;100965.81;4999063;28;20033;-61
2024/01/07 00:43:56;;;;;;;30.85;15.48;;;;;;;3.42;100.00;100973.47;5002240;28;20042;-59
2024/01/07 00:46:21;;;;;;;33.58;16.77;;;;;;;3.44;100.00;100966.69;4999317;28;20050;-59
2024/01/07 00:48:47;;;;;;;30.15;15.80;;;;;;;3.44;100.00;100961.56;4999808;28;20080;-59
2024/01/07 00:51:12;;;;;;;36.22;15.68;;;;;;;3.45;100.00;100967.56;4995694;28;20444;-59
2024/01/07 00:53:37;;;;;;;33.38;15.77;;;;;;;3.43;100.00;100962.41;4993524;28;20038;-59
2024/01/07 00:56:03;;;;;;;33.10;16.20;;;;;;;3.44;100.00;100965.81;4999512;28;20750;-60
2024/01/07 00:58:28;;;;;;;31.90;16.00;;;;;;;3.47;100.00;100968.44;4994888;28;20073;-58
2024/01/07 01:00:54;;;;;;;34.00;15.63;;;;;;;3.47;100.00;100963.31;4994463;28;20110;-59
2024/01/07 01:03:19;;;;;;;32.58;16.30;;;;;;;3.45;100.00;100967.56;4993925;28;20073;-59
2024/01/07 01:05:45;;;;;;;30.23;15.05;;;;;;;3.42;100.00;100970.03;4998697;28;20037;-59
2024/01/07 01:08:10;;;;;;;31.20;14.35;;;;;;;3.42;100.00;100970.91;4999173;28;20471;-60
2024/01/07 01:10:36;;;;;;;27.70;14.63;;;;;;;3.42;100.00;100973.47;4996511;28;20104;-59
2024/01/07 01:13:01;;;;;;;30.27;14.38;;;;;;;3.45;100.00;100978.63;4990128;28;20041;-59
2024/01/07 01:15:26;;;;;;;30.23;14.23;;;;;;;3.47;100.00;100983.78;4991326;28;20114;-59
2024/01/07 01:17:52;;;;;;;27.70;14.65;;;;;;;3.46;100.00;100993.16;4995502;28;20042;-59
2024/01/07 01:20:17;;;;;;;30.63;14.73;;;;;;;3.48;100.00;100988.06;4999359;28;20061;-59
2024/01/07 01:22:43;;;;;;;32.97;14.82;;;;;;;3.48;100.00;100990.63;4991887;28;20026;-62
2024/01/07 01:25:08;;;;;;;30.10;14.68;;;;;;;3.46;100.00;100993.16;4998513;28;20045;-62
2024/01/07 01:27:33;;;;;;;29.73;15.48;;;;;;;3.47;100.00;100994.00;4997288;28;20030;-62
2024/01/07 01:29:59;;;;;;;28.23;13.57;;;;;;;3.45;100.00;100999.09;4993777;28;20046;-65
2024/01/07 01:32:24;;;;;;;35.17;16.98;;;;;;;3.46;100.00;101002.50;4998348;28;20758;-64
2024/01/07 01:34:49;;;;;;;32.55;15.98;;;;;;;3.47;100.00;101001.66;4999058;28;20037;-65
2024/01/07 01:37:15;;;;;;;30.60;15.80;;;;;;;3.45;100.00;101004.19;4999253;28;20026;-64
2024/01/07 01:39:41;;;;;;;33.63;15.98;;;;;;;3.46;100.00;101007.63;4997229;28;20049;-64
2024/01/07 01:42:06;;;;;;;35.30;16.35;;;;;;;3.46;100.00;101015.28;4996957;28;20042;-64
2024/01/07 01:44:32;;;;;;;33.85;17.30;;;;;;;3.46;100.00;101012.72;4995033;28;20489;-64
2024/01/07 01:46:57;;;;;;;33.97;16.52;;;;;;;3.49;100.00;101018.78;4996735;28;20038;-64
2024/01/07 01:49:24;;;;;;;34.40;16.60;;;;;;;3.49;100.00;101015.34;4999067;28;20528;-64
2024/01/07 01:51:50;;;;;;;36.70;17.40;;;;;;;3.48;100.00;101014.50;4996513;28;20062;-64
2024/01/07 01:54:16;;;;;;;36.05;16.05;;;;;;;3.50;100.00;101017.06;4991063;28;20034;-63
2024/01/07 01:56:42;;;;;;;30.23;14.88;;;;;;;3.49;100.00;101012.81;4990933;28;20037;-63
2024/01/07 01:59:08;;;;;;;27.95;14.57;;;;;;;3.49;100.00;101018.78;4986196;28;20762;-64
2024/01/07 02:01:34;;;;;;;29.40;14.98;;;;;;;3.52;100.00;101018.84;4991963;28;20044;-64
2024/01/07 02:03:59;;;;;;;27.70;15.13;;;;;;;3.52;100.00;101023.97;4994894;28;20038;-64
2024/01/07 02:06:25;;;;;;;32.63;15.05;;;;;;;3.51;100.00;101022.22;4997647;28;20034;-64
2024/01/07 02:08:50;;;;;;;27.85;14.05;;;;;;;3.56;100.00;101032.53;4992871;28;20049;-64
2024/01/07 02:11:21;;;;;;;25.38;14.18;;;;;;;3.55;100.00;101023.16;4993513;28;20030;-64
2024/01/07 02:13:47;;;;;;;26.10;14.30;;;;;;;3.54;100.00;101032.53;4991013;28;20092;-64
2024/01/07 02:16:12;;;;;;;24.80;12.60;;;;;;;3.57;100.00;101038.53;4993894;28;20401;-64
2024/01/07 02:18:40;;;;;;;22.95;12.00;;;;;;;3.56;100.00;101041.94;4988004;28;20046;-64
2024/01/07 02:21:07;;;;;;;21.20;11.77;;;;;;;3.56;100.00;101042.75;4997185;28;20124;-64
2024/01/07 02:23:33;;;;;;;21.95;11.90;;;;;;;3.58;100.00;101042.81;4996752;28;20062;-64
2024/01/07 02:25:58;;;;;;;19.88;11.23;;;;;;;3.57;100.00;101035.97;4997922;28;20133;-64
2024/01/07 02:28:23;;;;;;;21.98;11.43;;;;;;;3.56;100.00;101042.75;4995098;28;20048;-64
2024/01/07 02:30:49;;;;;;;22.88;11.68;;;;;;;3.57;100.00;101039.41;4991149;28;20037;-63
2024/01/07 02:33:14;;;;;;;20.55;10.63;;;;;;;3.57;100.00;101039.41;4998910;28;20046;-64
2024/01/07 02:35:39;;;;;;;19.80;10.60;;;;;;;3.56;100.00;101029.16;4993524;28;20053;-60
2024/01/07 02:38:05;;;;;;;18.60;10.10;;;;;;;3.54;100.00;101040.19;5001186;28;20040;-60
2024/01/07 02:40:30;;;;;;;19.45;10.60;;;;;;;3.54;100.00;101040.19;4993263;28;20038;-60
2024/01/07 02:42:56;;;;;;;19.23;9.48;;;;;;;3.52;100.00;101039.31;4996925;28;20046;-61
2024/01/07 02:45:22;;;;;;;18.75;9.82;;;;;;;3.52;100.00;101041.00;4998656;28;20828;-61
2024/01/07 02:47:47;;;;;;;20.75;9.70;;;;;;;3.51;100.00;101040.13;4996112;28;20034;-61
2024/01/07 02:50:13;;;;;;;16.13;8.93;;;;;;;3.52;100.00;101041.84;4998136;28;20481;-62
2024/01/07 02:52:38;;;;;;;16.92;9.52;;;;;;;3.56;100.00;101044.47;4994537;28;20046;-62
2024/01/07 02:55:04;;;;;;;18.50;10.73;;;;;;;3.53;100.00;101042.69;4995663;28;20042;-62
2024/01/07 02:57:29;;;;;;;17.70;9.27;;;;;;;3.53;100.00;101032.47;4997461;28;20038;-62
2024/01/07 02:59:54;;;;;;;16.88;9.23;;;;;;;3.52;100.00;101039.31;4995137;28;20042;-62
2024/01/07 03:02:20;;;;;;;18.27;9.65;;;;;;;3.52;100.00;101043.53;4997295;28;21015;-61
2024/01/07 03:04:45;;;;;;;17.30;9.20;;;;;;;3.53;100.00;101045.25;4998280;28;20065;-59
2024/01/07 03:07:10;;;;;;;16.73;9.40;;;;;;;3.52;100.00;101057.19;4992562;28;20070;-64
2024/01/07 03:09:36;;;;;;;19.05;9.73;;;;;;;3.53;100.00;101052.91;4994899;28;20046;-64
2024/01/07 03:12:01;;;;;;;18.48;9.73;;;;;;;3.50;100.00;101056.25;4996801;28;20633;-65
2024/01/07 03:14:27;;;;;;;20.98;11.05;;;;;;;3.50;100.00;101055.41;4997705;28;20030;-64
2024/01/07 03:16:52;;;;;;;21.30;11.13;;;;;;;3.47;100.00;101058.75;4994393;28;20238;-65
2024/01/07 03:19:18;;;;;;;20.27;11.32;;;;;;;3.46;100.00;101072.38;4996925;28;20080;-64
2024/01/07 03:21:43;;;;;;;22.02;11.27;;;;;;;3.42;100.00;101072.22;4995588;28;20104;-64
2024/01/07 03:24:08;;;;;;;24.00;11.77;;;;;;;3.42;100.00;101065.44;4998512;28;20030;-64
2024/01/07 03:26:34;;;;;;;22.85;12.73;;;;;;;3.41;100.00;101071.38;4995125;28;20041;-64
2024/01/07 03:29:00;;;;;;;21.20;11.55;;;;;;;3.34;100.00;101069.50;4994920;28;20124;-64
2024/01/07 03:31:26;;;;;;;25.75;12.65;;;;;;;3.30;100.00;101066.81;4995330;28;20068;-64
2024/01/07 03:33:51;;;;;;;26.52;13.15;;;;;;;3.30;100.00;101069.38;4999435;28;20045;-64
2024/01/07 03:36:17;;;;;;;25.63;12.68;;;;;;;3.29;100.00;101071.06;4998830;28;20042;-64
2024/01/07 03:38:42;;;;;;;26.73;13.32;;;;;;;3.27;100.00;101075.25;4997684;28;20030;-64
2024/01/07 03:41:08;;;;;;;27.85;14.43;;;;;;;3.25;100.00;101081.16;4996082;28;20026;-65
2024/01/07 03:43:34;;;;;;;28.38;15.60;;;;;;;3.25;100.00;101071.81;5000496;28;20034;-64
2024/01/07 03:46:00;;;;;;;28.48;15.73;;;;;;;3.23;100.00;101078.56;4997839;28;20132;-65
2024/01/07 03:48:26;;;;;;;29.35;14.90;;;;;;;3.26;100.00;101072.69;4993749;28;20056;-64
2024/01/07 03:50:51;;;;;;;30.00;15.98;;;;;;;3.28;100.00;101079.56;4997743;28;20084;-64
2024/01/07 03:53:17;;;;;;;30.05;15.48;;;;;;;3.28;100.00;101079.56;5002227;28;20026;-64
2024/01/07 03:55:42;;;;;;;29.70;15.13;;;;;;;3.28;100.00;101081.25;4999226;28;20041;-64
2024/01/07 03:58:08;;;;;;;30.77;15.18;;;;;;;3.28;100.00;101077.00;4994523;28;20038;-61
2024/01/07 04:00:34;;;;;;;29.38;14.80;;;;;;;3.29;100.00;101075.31;4991360;28;20531;-62
2024/01/07 04:03:01;;;;;;;30.90;16.45;;;;;;;3.32;100.00;101075.41;4993735;28;20401;-62
2024/01/07 04:05:26;;;;;;;36.90;18.20;;;;;;;3.34;100.00;101082.28;4997626;28;20036;-64
2024/01/07 04:07:51;;;;;;;28.23;15.25;;;;;;;3.34;100.00;101087.38;4991799;28;20038;-64
2024/01/07 04:10:17;;;;;;;30.25;15.55;;;;;;;3.34;100.00;101083.97;4996170;28;20096;-63
2024/01/07 04:12:43;;;;;;;28.50;15.50;;;;;;;3.34;100.00;101092.50;4992048;28;20046;-63
2024/01/07 04:15:09;;;;;;;29.17;15.77;;;;;;;3.33;100.00;101089.88;4996091;28;20042;-64
2024/01/07 04:17:34;;;;;;;25.90;14.25;;;;;;;3.29;100.00;101090.66;4992630;28;20476;-64
2024/01/07 04:19:59;;;;;;;26.52;14.82;;;;;;;3.30;100.00;101098.34;4998832;28;20838;-64
2024/01/07 04:22:25;;;;;;;27.27;14.93;;;;;;;3.28;100.00;101100.00;4997633;28;20097;-64
2024/01/07 04:24:50;;;;;;;26.55;13.95;;;;;;;3.27;100.00;101090.59;4991268;28;20038;-63
2024/01/07 04:27:15;;;;;;;26.27;13.73;;;;;;;3.25;100.00;101093.94;4999306;28;20041;-65
2024/01/07 04:29:41;;;;;;;26.83;14.70;;;;;;;3.22;100.00;101097.28;4994897;28;20044;-64
2024/01/07 04:32:06;;;;;;;29.73;15.10;;;;;;;3.25;100.00;101102.47;4985459;28;20040;-64
2024/01/07 04:34:31;;;;;;;26.42;14.63;;;;;;;3.23;100.00;101109.22;4994507;28;20759;-65
2024/01/07 04:36:57;;;;;;;31.40;16.30;;;;;;;3.22;100.00;101101.53;4991785;28;20065;-64
2024/01/07 04:39:23;;;;;;;28.77;14.93;;;;;;;3.25;100.00;101106.72;4990248;28;20151;-64
2024/01/07 04:41:48;;;;;;;24.95;14.32;;;;;;;3.26;100.00;101111.00;4991346;28;20044;-63
2024/01/07 04:44:13;;;;;;;30.10;15.60;;;;;;;3.23;100.00;101108.38;4991212;28;20027;-64
2024/01/07 04:46:39;;;;;;;28.67;16.05;;;;;;;3.24;100.00;101110.94;4993798;28;20042;-64
2024/01/07 04:49:06;;;;;;;24.08;14.30;;;;;;;3.23;100.00;101116.03;4995652;28;20065;-64
2024/01/07 04:51:32;;;;;;;25.25;13.80;;;;;;;3.20;100.00;101114.22;5000558;28;20814;-59
2024/01/07 04:53:58;;;;;;;28.52;13.77;;;;;;;3.22;100.00;101124.50;4991467;28;20046;-60
2024/01/07 04:56:23;;;;;;;26.20;14.90;;;;;;;3.19;100.00;101130.41;4997018;28;20026;-59
2024/01/07 04:58:48;;;;;;;26.52;14.63;;;;;;;3.17;100.00;101128.63;4996905;28;20834;-59
2024/01/07 05:01:14;;;;;;;24.38;13.75;;;;;;;3.11;100.00;101131.03;4990274;28;20136;-59
2024/01/07 05:03:39;;;;;;;27.40;13.05;;;;;;;3.07;100.00;101129.19;4993213;28;20096;-59
2024/01/07 05:06:05;;;;;;;26.45;14.02;;;;;;;3.09;100.00;101132.66;4996848;28;20091;-59
2024/01/07 05:08:30;;;;;;;28.83;13.85;;;;;;;3.05;100.00;101144.50;4997356;28;20529;-59
2024/01/07 05:10:56;;;;;;;25.15;13.15;;;;;;;2.99;100.00;101137.50;4992683;28;20033;-59
2024/01/07 05:13:22;;;;;;;23.80;13.20;;;;;;;2.99;100.00;101144.31;4996855;28;20053;-59
2024/01/07 05:15:53;;;;;;;22.95;12.57;;;;;;;2.95;100.00;101147.59;4989665;28;20042;-59
2024/01/07 05:18:22;;;;;;;24.45;13.18;;;;;;;2.94;100.00;101149.28;4996229;28;20075;-59
2024/01/07 05:20:48;;;;;;;25.55;13.13;;;;;;;2.95;100.00;101156.13;4993881;28;20080;-59
2024/01/07 05:23:13;;;;;;;25.05;13.05;;;;;;;2.94;100.00;101153.53;4998939;28;20018;-64
2024/01/07 05:25:38;;;;;;;26.05;13.93;;;;;;;2.94;100.00;101156.94;4995492;28;20053;-64
2024/01/07 05:28:04;;;;;;;26.05;13.27;;;;;;;2.93;100.00;101159.47;4997579;28;20029;-64
2024/01/07 05:30:30;;;;;;;23.50;12.77;;;;;;;2.91;100.00;101161.09;4996306;28;20030;-64
2024/01/07 05:32:55;;;;;;;22.73;13.02;;;;;;;2.88;100.00;101158.44;4994894;28;20041;-65
2024/01/07 05:35:21;;;;;;;22.88;12.85;;;;;;;2.89;100.00;101167.84;4998661;28;20033;-64
2024/01/07 05:37:46;;;;;;;23.45;12.52;;;;;;;2.87;100.00;101164.41;4995653;28;20077;-64
2024/01/07 05:40:12;;;;;;;25.10;13.15;;;;;;;2.82;100.00;101174.47;4993874;28;20034;-63
2024/01/07 05:42:37;;;;;;;29.45;14.55;;;;;;;2.77;100.00;101173.47;4996370;28;20058;-64
2024/01/07 05:45:03;;;;;;;28.42;14.13;;;;;;;2.75;100.00;101172.56;4997047;28;20125;-62
2024/01/07 05:47:28;;;;;;;30.70;15.20;;;;;;;2.75;100.00;101175.13;4995603;28;20893;-62
2024/01/07 05:49:53;;;;;;;30.80;15.10;;;;;;;2.72;100.00;101180.13;4997324;28;20581;-62
2024/01/07 05:52:19;;;;;;;29.90;15.55;;;;;;;2.74;100.00;101185.25;5008786;28;20188;-63
2024/01/07 05:54:44;;;;;;;30.90;15.00;;;;;;;2.73;100.00;101186.06;4995307;28;20034;-61
2024/01/07 05:57:11;;;;;;;33.05;16.40;;;;;;;2.76;100.00;101192.16;5005273;28;20049;-61
2024/01/07 05:59:37;;;;;;;36.88;17.88;;;;;;;2.74;100.00;101190.38;4991847;28;20030;-63
2024/01/07 06:02:02;;;;;;;36.83;18.05;;;;;;;2.71;100.00;101185.16;4993481;28;20121;-61
2024/01/07 06:04:28;;;;;;;36.95;16.92;;;;;;;2.69;100.00;101205.56;4997106;28;20108;-62
2024/01/07 06:06:53;;;;;;;35.03;16.58;;;;;;;2.70;100.00;101202.16;4998552;28;20064;-62
2024/01/07 06:09:19;;;;;;;33.97;17.40;;;;;;;2.72;100.00;101203.09;4995703;28;20034;-62
2024/01/07 06:11:44;;;;;;;35.60;17.63;;;;;;;2.70;100.00;101201.28;4997474;28;20034;-62
2024/01/07 06:14:09;;;;;;;37.72;18.42;;;;;;;2.72;100.00;101205.66;4988897;28;20094;-64
2024/01/07 06:16:35;;;;;;;37.55;17.90;;;;;;;2.71;100.00;101206.47;4992941;28;20046;-64
2024/01/07 06:19:01;;;;;;;33.70;16.80;;;;;;;2.68;100.00;101211.47;4995742;28;20084;-64
2024/01/07 06:21:26;;;;;;;34.42;18.13;;;;;;;2.68;100.00;101208.91;4994981;28;20164;-59
2024/01/07 06:23:52;;;;;;;34.58;17.50;;;;;;;2.68;100.00;101220.81;4999478;28;20049;-59
2024/01/07 06:26:17;;;;;;;37.15;18.50;;;;;;;2.67;100.00;101224.16;4999724;28;20034;-59
2024/01/07 06:28:43;;;;;;;35.05;18.20;;;;;;;2.65;100.00;101225.81;4996697;28;20079;-59
2024/01/07 06:31:08;;;;;;;33.05;17.70;;;;;;;2.64;100.00;101226.63;4993033;28;20432;-59
2024/01/07 06:33:34;;;;;;;40.17;18.35;;;;;;;2.63;100.00;101235.13;4993584;28;20535;-62
2024/01/07 06:36:00;;;;;;;30.58;16.75;;;;;;;2.65;100.00;101233.47;4996689;28;20091;-59
2024/01/07 06:38:25;;;;;;;36.22;18.88;;;;;;;2.67;100.00;101236.94;5000416;28;20080;-59
2024/01/07 06:40:51;;;;;;;32.53;16.35;;;;;;;2.65;100.00;101238.59;4993782;28;20034;-59
2024/01/07 06:43:16;;;;;;;36.47;18.05;;;;;;;2.61;100.00;101240.16;4995477;28;20620;-59
2024/01/07 06:45:43;;;;;;;36.38;18.00;;;;;;;2.58;100.00;101245.19;4998339;28;20471;-59
2024/01/07 06:48:08;;;;;;;31.80;17.55;;;;;;;2.58;100.00;101246.88;4996534;28;20157;-60
2024/01/07 06:50:34;;;;;;;32.78;17.90;;;;;;;2.54;100.00;101252.69;4992866;28;20038;-59
2024/01/07 06:53:00;;;;;;;34.03;18.58;;;;;;;2.55;100.00;101262.94;4996451;28;20124;-59
2024/01/07 06:55:25;;;;;;;36.10;17.48;;;;;;;2.55;100.00;101255.28;4997555;28;20029;-62
2024/01/07 06:57:51;;;;;;;31.17;16.92;;;;;;;2.56;100.00;101261.25;4991984;28;20042;-62
2024/01/07 07:00:17;;;;;;;35.38;18.95;;;;;;;2.55;100.00;101265.50;4989888;28;20048;-62
2024/01/07 07:02:43;;;;;;;34.75;18.90;;;;;;;2.58;100.00;101273.25;4989052;28;20033;-63
2024/01/07 07:05:08;;;;;;;34.45;18.25;;;;;;;2.60;100.00;101274.19;4993737;28;20030;-62
2024/01/07 07:07:34;;;;;;;33.55;17.75;;;;;;;2.61;100.00;101275.03;4993046;28;20085;-62
2024/01/07 07:09:59;;;;;;;31.73;16.75;;;;;;;2.60;100.00;101275.84;4990422;28;20045;-63
2024/01/07 07:12:25;;;;;;;36.47;17.67;;;;;;;2.59;100.00;101287.75;4990423;28;20053;-64
2024/01/07 07:14:50;;;;;;;32.15;16.95;;;;;;;2.59;100.00;101286.88;4989314;28;20504;-62
2024/01/07 07:17:15;;;;;;;32.30;16.02;;;;;;;2.58;100.00;101290.25;4994706;28;20084;-63
2024/01/07 07:19:41;;;;;;;33.38;17.02;;;;;;;2.58;100.00;101298.75;4991662;28;20045;-62
2024/01/07 07:22:06;;;;;;;30.90;16.60;;;;;;;2.60;100.00;101302.25;4990425;28;20049;-62
2024/01/07 07:24:31;;;;;;;30.10;16.50;;;;;;;2.59;100.00;101300.50;4994026;28;20048;-62
2024/01/07 07:26:57;;;;;;;28.30;16.00;;;;;;;2.59;100.00;101300.50;4995145;28;20093;-62
2024/01/07 07:29:22;;;;;;;30.17;15.60;;;;;;;2.56;100.00;101297.84;4992762;28;20113;-62
2024/01/07 07:31:48;;;;;;;30.73;16.80;;;;;;;2.59;100.00;101304.75;4993593;28;20072;-62
2024/01/07 07:34:13;;;;;;;34.00;17.25;;;;;;;2.58;100.00;101315.78;4985070;28;20042;-62
2024/01/07 07:36:40;;;;;;;35.05;17.52;;;;;;;2.58;100.00;101320.88;4989716;28;20408;-62
2024/01/07 07:39:06;;;;;;;29.38;15.70;;;;;;;2.58;100.00;101319.16;4989958;28;20496;-64
2024/01/07 07:41:31;;;;;;;32.67;16.90;;;;;;;2.59;100.00;101327.69;4991495;28;20120;-64
2024/01/07 07:43:57;;;;;;;28.58;15.55;;;;;;;2.57;100.00;101326.78;4994158;28;20464;-64
2024/01/07 07:46:22;;;;;;;28.23;15.82;;;;;;;2.59;100.00;101333.69;4994506;28;20180;-62
2024/01/07 07:48:48;;;;;;;27.67;15.30;;;;;;;2.60;100.00;101337.09;4994036;28;20042;-61
2024/01/07 07:51:13;;;;;;;31.25;16.58;;;;;;;2.63;100.00;101344.84;4990850;28;20031;-61
2024/01/07 07:53:39;;;;;;;29.95;15.88;;;;;;;2.61;100.00;101337.13;4994540;28;20683;-61
2024/01/07 07:56:05;;;;;;;30.13;16.35;;;;;;;2.63;100.00;101339.75;4994847;28;20046;-62
2024/01/07 07:58:31;;;;;;;30.98;16.13;;;;;;;2.64;100.00;101344.91;4992097;28;20698;-62
2024/01/07 08:00:56;;;;;;;30.40;16.65;;;;;;;2.62;100.00;101341.44;4991869;28;20042;-62
2024/01/07 08:03:21;;;;;;;26.60;15.32;;;;;;;2.67;100.00;101346.66;4993194;28;20358;-61
2024/01/07 08:05:47;;;;;;;29.52;16.13;;;;;;;2.65;100.00;101350.88;4987765;28;20070;-62
2024/01/07 08:08:12;;;;;;;28.02;15.95;;;;;;;2.68;100.00;101356.94;4995610;28;20034;-62
2024/01/07 08:10:38;;;;;;;29.77;16.15;;;;;;;2.68;100.00;101351.84;4992766;28;20041;-62
2024/01/07 08:13:03;;;;;;;26.35;15.23;;;;;;;2.68;100.00;101356.06;4996438;28;20081;-62
2024/01/07 08:15:28;;;;;;;29.35;15.95;;;;;;;2.69;100.00;101361.25;4990546;28;20572;-59
2024/01/07 08:17:54;;;;;;;24.88;14.60;;;;;;;2.67;100.00;101355.19;4988860;28;20048;-59
2024/01/07 08:20:19;;;;;;;27.52;14.85;;;;;;;2.65;100.00;101359.41;4989013;28;20963;-59
2024/01/07 08:22:45;;;;;;;22.55;13.95;;;;;;;2.66;100.00;101367.94;4998262;28;20161;-59
2024/01/07 08:25:11;;;;;;;26.60;14.88;;;;;;;2.72;100.00;101378.34;4996186;28;20042;-59
2024/01/07 08:27:37;;;;;;;25.65;13.60;;;;;;;2.69;100.00;101368.03;4997347;28;20667;-61
2024/01/07 08:30:03;;;;;;;25.50;13.88;;;;;;;2.72;100.00;101375.78;4990801;28;20493;-60
2024/01/07 08:32:28;;;;;;;26.40;15.10;;;;;;;2.74;100.00;101384.34;4999694;28;20144;-60
2024/01/07 08:34:54;;;;;;;23.75;14.38;;;;;;;2.74;100.00;101392.88;4999257;28;20045;-60
2024/01/07 08:37:19;;;;;;;27.42;15.27;;;;;;;2.75;100.00;101396.31;4992956;28;20085;-60
2024/01/07 08:39:44;;;;;;;25.67;15.02;;;;;;;2.74;100.00;101394.56;4996635;28;20104;-60
2024/01/07 08:42:10;;;;;;;21.27;12.80;;;;;;;2.70;100.00;101395.25;4996889;28;20856;-60
2024/01/07 08:44:35;;;;;;;25.40;15.15;;;;;;;2.72;100.00;101408.97;4996053;28;20041;-60
2024/01/07 08:47:00;;;;;;;24.88;13.20;;;;;;;2.70;100.00;101408.03;4995538;28;20077;-60
2024/01/07 08:49:27;;;;;;;22.45;13.45;;;;;;;2.71;100.00;101403.00;4996582;28;20481;-60
2024/01/07 08:51:53;;;;;;;23.08;12.77;;;;;;;2.73;100.00;101409.00;4997594;28;20038;-60
2024/01/07 08:54:18;;;;;;;23.27;13.35;;;;;;;2.71;100.00;101408.09;4997409;28;20045;-61
2024/01/07 08:56:44;;;;;;;25.83;13.82;;;;;;;2.74;100.00;101407.31;4998923;28;20556;-61
2024/01/07 08:59:10;;;;;;;21.85;13.05;;;;;;;2.75;100.00;101404.84;4995188;28;20125;-60
2024/01/07 09:01:36;;;;;;;23.65;13.45;;;;;;;2.75;100.00;101416.72;4995957;28;20096;-60
2024/01/07 09:04:01;;;;;;;22.92;13.07;;;;;;;2.74;100.00;101415.84;4992342;28;20046;-60
2024/01/07 09:06:26;;;;;;;27.40;14.77;;;;;;;2.79;100.00;101418.53;4989747;28;20030;-59
2024/01/07 09:08:52;;;;;;;23.98;13.13;;;;;;;2.74;100.00;101415.84;4993627;28;20147;-59
2024/01/07 09:11:20;;;;;;;26.52;14.57;;;;;;;2.75;100.00;101422.72;4995887;28;20118;-60
2024/01/07 09:13:48;;;;;;;25.10;14.18;;;;;;;2.74;100.00;101422.63;4997982;28;20111;-59
2024/01/07 09:16:14;;;;;;;24.73;13.48;;;;;;;2.76;100.00;101431.19;4993965;28;20064;-60
2024/01/07 09:18:40;;;;;;;23.05;13.90;;;;;;;2.75;100.00;101437.16;5002623;28;20748;-60
2024/01/07 09:21:06;;;;;;;24.70;13.68;;;;;;;2.79;100.00;101434.75;5000360;28;20076;-60
2024/01/07 09:23:33;;;;;;;23.48;13.40;;;;;;;2.77;100.00;101441.47;5001861;28;20037;-59
2024/01/07 09:25:58;;;;;;;25.45;14.32;;;;;;;2.79;100.00;101452.59;4993247;28;20468;-59
2024/01/07 09:28:24;;;;;;;24.15;13.20;;;;;;;2.84;100.00;101460.44;4994175;28;20567;-63
2024/01/07 09:30:49;;;;;;;24.73;13.45;;;;;;;2.80;100.00;101456.91;4995002;28;20038;-61
2024/01/07 09:33:15;;;;;;;25.55;14.57;;;;;;;2.81;100.00;101452.66;4995109;28;20057;-61
2024/01/07 09:35:40;;;;;;;26.35;14.38;;;;;;;2.83;100.00;101461.25;4997830;28;20498;-61
2024/01/07 09:38:06;;;;;;;31.33;16.85;;;;;;;2.82;100.00;101467.16;4997436;28;20362;-61
2024/01/07 09:40:31;;;;;;;23.98;14.95;;;;;;;2.83;100.00;101463.78;4993759;28;20053;-61
2024/01/07 09:42:59;;;;;;;27.52;14.85;;;;;;;2.81;100.00;101463.75;4995830;28;20042;-64
2024/01/07 09:45:25;;;;;;;27.23;14.75;;;;;;;2.80;100.00;101461.13;4996532;28;20817;-64
2024/01/07 09:47:50;;;;;;;31.33;15.65;;;;;;;2.76;100.00;101462.72;4996473;28;20378;-64
2024/01/07 09:50:16;;;;;;;28.08;14.57;;;;;;;2.73;100.00;101467.72;4996440;28;20062;-61
2024/01/07 09:52:44;;;;;;;27.70;14.35;;;;;;;2.71;100.00;101464.25;4995589;28;20505;-61
2024/01/07 09:55:16;;;;;;;29.77;16.48;;;;;;;2.72;100.00;101471.09;4995337;28;20046;-64
2024/01/07 09:57:44;;;;;;;28.48;15.60;;;;;;;2.65;100.00;101464.03;4998304;28;20054;-64
2024/01/07 10:00:10;;;;;;;31.02;15.98;;;;;;;2.65;100.00;101473.38;4994292;28;20042;-63
2024/01/07 10:02:36;;;;;;;34.25;15.15;;;;;;;2.59;100.00;101473.16;4994448;28;20034;-65
2024/01/07 10:05:01;;;;;;;26.15;13.88;;;;;;;2.58;100.00;101471.44;4993033;28;20052;-64
2024/01/07 10:07:27;;;;;;;30.30;16.08;;;;;;;2.56;100.00;101480.69;4994282;28;20561;-64
2024/01/07 10:09:54;;;;;;;26.40;13.98;;;;;;;2.56;100.00;101480.69;4996709;28;20064;-64
2024/01/07 10:12:23;;;;;;;30.55;14.40;;;;;;;2.58;100.00;101472.28;4987456;28;20066;-64
2024/01/07 10:14:48;;;;;;;31.65;15.27;;;;;;;2.64;100.00;101476.72;5003932;28;20068;-64
2024/01/07 10:17:16;;;;;;;29.08;14.50;;;;;;;2.62;100.00;101474.13;4995132;28;20034;-65
2024/01/07 10:19:45;;;;;;;30.55;15.00;;;;;;;2.62;100.00;101478.38;4995846;28;20052;-65
2024/01/07 10:22:12;;;;;;;25.95;14.75;;;;;;;2.66;100.00;101480.22;4995564;28;20039;-64
2024/01/07 10:24:39;;;;;;;30.40;15.40;;;;;;;2.63;100.00;101478.44;4993250;28;20038;-64
2024/01/07 10:27:05;;;;;;;27.55;15.13;;;;;;;2.68;100.00;101482.00;4995334;28;20141;-64
2024/01/07 10:29:31;;;;;;;27.90;14.52;;;;;;;2.74;100.00;101483.91;4996021;28;20699;-65
2024/01/07 10:31:57;;;;;;;27.60;14.18;;;;;;;2.68;100.00;101476.91;4995115;28;20057;-65
2024/01/07 10:34:24;;;;;;;23.92;14.18;;;;;;;2.72;100.00;101483.88;4995130;28;20050;-63
2024/01/07 10:36:54;;;;;;;25.98;14.35;;;;;;;2.56;100.00;101488.34;4994996;28;20113;-65
2024/01/07 10:39:19;;;;;;;23.73;12.90;;;;;;;2.46;100.00;101499.06;4989467;28;20088;-64
2024/01/07 10:41:47;;;;;;;20.80;12.82;;;;;;;2.41;100.00;101499.75;4991420;28;20477;-64
2024/01/07 10:44:12;;;;;;;21.33;11.88;;;;;;;2.40;100.00;101499.69;4991685;28;20018;-64
2024/01/07 10:46:39;;;;;;;26.63;13.38;;;;;;;2.50;100.00;101508.56;4994077;28;20045;-65
2024/01/07 10:49:12;;;;;;;18.88;12.50;;;;;;;2.52;100.00;101504.41;4988800;28;20056;-63
2024/01/07 10:51:39;;;;;;;18.73;11.98;;;;;;;2.53;100.00;101504.44;4992144;28;20092;-64
2024/01/07 10:54:07;;;;;;;16.77;10.95;;;;;;;2.50;100.00;101506.00;4988989;28;20048;-64
2024/01/07 10:56:43;;;;;;;18.40;11.27;;;;;;;2.35;100.00;101517.41;4991010;28;20061;-64
2024/01/07 10:59:08;;;;;;;17.27;10.55;;;;;;;2.17;100.00;101515.84;4998356;28;20105;-63
2024/01/07 11:01:34;;;;;;;20.20;11.27;;;;;;;2.17;100.00;101514.16;4994192;28;21045;-64